createdAt,value
2017-08-12T00:01:02.581Z,9.70
2017-08-12T00:03:30.097Z,9.83
2017-08-12T00:05:57.643Z,11.10
2017-08-12T00:08:25.169Z,9.10
2017-08-12T00:10:52.797Z,9.77
2017-08-12T00:13:20.426Z,9.90
2017-08-12T00:15:48.002Z,8.60
2017-08-12T00:18:15.524Z,8.60
2017-08-12T00:20:43.066Z,8.20
2017-08-12T00:23:10.595Z,8.07
2017-08-12T00:25:38.261Z,8.90
2017-08-12T00:28:06.572Z,7.27
2017-08-12T00:30:34.091Z,7.80
2017-08-12T00:33:02.379Z,7.80
2017-08-12T00:35:29.914Z,7.60
2017-08-12T00:37:57.430Z,7.90
2017-08-12T00:40:24.953Z,7.50
2017-08-12T00:42:52.502Z,11.20
2017-08-12T00:45:20.042Z,7.27
2017-08-12T00:47:47.562Z,9.07
2017-08-12T00:50:15.093Z,8.30
2017-08-12T00:52:42.622Z,10.33
2017-08-12T00:55:10.150Z,8.60
2017-08-12T00:57:37.693Z,8.53
2017-08-12T01:00:05.214Z,8.03
2017-08-12T01:02:33.502Z,8.20
2017-08-12T01:05:01.042Z,9.73
2017-08-12T01:07:29.333Z,8.87
2017-08-12T01:09:56.857Z,10.53
2017-08-12T01:12:24.389Z,9.60
2017-08-12T01:14:51.905Z,9.50
2017-08-12T01:17:20.189Z,9.00
2017-08-12T01:19:48.497Z,9.53
2017-08-12T01:22:16.012Z,8.23
2017-08-12T01:24:44.301Z,8.03
2017-08-12T01:27:11.848Z,8.77
2017-08-12T01:29:40.144Z,7.70
2017-08-12T01:32:07.674Z,6.60
2017-08-12T01:34:35.210Z,6.20
2017-08-12T01:37:02.726Z,5.20
2017-08-12T01:39:30.290Z,3.67
2017-08-12T01:41:57.878Z,5.63
2017-08-12T01:44:25.402Z,4.10
2017-08-12T01:46:52.925Z,2.87
2017-08-12T01:49:20.482Z,3.50
2017-08-12T01:51:48.005Z,2.77
2017-08-12T01:54:15.526Z,2.90
2017-08-12T01:56:43.070Z,2.57
2017-08-12T01:59:11.361Z,2.83
2017-08-12T02:01:39.654Z,3.10
2017-08-12T02:04:07.193Z,3.50
2017-08-12T02:06:34.721Z,2.93
2017-08-12T02:09:02.237Z,2.40
2017-08-12T02:11:29.779Z,3.07
2017-08-12T02:13:58.057Z,2.70
2017-08-12T02:16:25.577Z,3.30
2017-08-12T02:18:53.112Z,3.60
2017-08-12T02:21:20.658Z,4.00
2017-08-12T02:23:48.186Z,4.03
2017-08-12T02:26:16.489Z,3.30
2017-08-12T02:28:44.012Z,3.93
2017-08-12T02:31:12.302Z,4.93
2017-08-12T02:33:39.852Z,4.07
2017-08-12T02:36:08.142Z,4.43
2017-08-12T02:38:35.658Z,4.00
2017-08-12T02:41:03.196Z,4.00
2017-08-12T02:43:30.718Z,4.50
2017-08-12T02:45:58.271Z,5.60
2017-08-12T02:48:26.578Z,7.00
2017-08-12T02:50:54.106Z,5.53
2017-08-12T02:53:22.390Z,6.57
2017-08-12T02:55:49.935Z,6.20
2017-08-12T02:58:18.225Z,7.20
2017-08-12T03:00:46.522Z,5.73
2017-08-12T03:03:14.064Z,7.43
2017-08-12T03:05:41.581Z,7.40
2017-08-12T03:08:09.109Z,7.57
2017-08-12T03:10:36.649Z,6.80
2017-08-12T03:13:04.177Z,7.73
2017-08-12T03:15:31.697Z,8.20
2017-08-12T03:17:59.243Z,9.73
2017-08-12T03:20:26.760Z,9.30
2017-08-12T03:22:55.053Z,7.30
2017-08-12T03:25:22.593Z,8.17
2017-08-12T03:27:50.877Z,8.07
2017-08-12T03:30:19.166Z,7.63
2017-08-12T03:32:46.964Z,8.63
2017-08-12T03:35:14.490Z,9.80
2017-08-12T03:37:42.018Z,9.90
2017-08-12T03:40:09.563Z,11.30
2017-08-12T03:42:37.094Z,13.50
2017-08-12T03:45:04.623Z,11.37
2017-08-12T03:47:33.032Z,12.70
2017-08-12T03:50:00.562Z,13.30
2017-08-12T03:52:28.850Z,11.20
2017-08-12T03:54:56.421Z,14.33
2017-08-12T03:57:23.954Z,16.40
2017-08-12T03:59:52.254Z,15.30
2017-08-12T04:02:19.817Z,14.37
2017-08-12T04:04:47.346Z,14.53
2017-08-12T04:07:15.636Z,17.10
2017-08-12T04:09:43.541Z,13.40
2017-08-12T04:12:11.067Z,11.73
2017-08-12T04:14:38.597Z,14.03
2017-08-12T04:17:06.908Z,12.43
2017-08-12T04:19:34.441Z,13.70
2017-08-12T04:22:02.737Z,14.00
2017-08-12T04:24:30.288Z,11.53
2017-08-12T04:26:57.809Z,12.23
2017-08-12T04:29:25.437Z,12.80
2017-08-12T04:31:52.981Z,10.93
2017-08-12T04:34:20.515Z,12.40
2017-08-12T04:36:48.821Z,10.57
2017-08-12T04:39:16.360Z,10.23
2017-08-12T04:41:44.649Z,12.40
2017-08-12T04:44:12.168Z,11.30
2017-08-12T04:46:39.711Z,11.57
2017-08-12T04:49:07.242Z,10.83
2017-08-12T04:51:34.768Z,11.70
2017-08-12T04:54:03.208Z,9.53
2017-08-12T04:56:30.739Z,11.43
2017-08-12T04:58:58.274Z,10.20
2017-08-12T05:01:26.590Z,12.73
2017-08-12T05:03:54.114Z,13.70
2017-08-12T05:06:21.646Z,12.73
2017-08-12T05:08:49.190Z,11.90
2017-08-12T05:11:16.717Z,11.40
2017-08-12T05:13:44.246Z,15.07
2017-08-12T05:16:11.796Z,13.83
2017-08-12T05:18:40.385Z,14.57
2017-08-12T05:21:08.681Z,14.93
2017-08-12T05:23:36.233Z,13.27
2017-08-12T05:26:03.761Z,13.73
2017-08-12T05:28:31.293Z,13.97
2017-08-12T05:30:58.841Z,11.97
2017-08-12T05:33:26.358Z,11.43
2017-08-12T05:35:53.889Z,14.50
2017-08-12T05:38:21.431Z,12.93
2017-08-12T05:40:48.959Z,14.60
2017-08-12T05:43:16.488Z,13.10
2017-08-12T05:45:44.812Z,16.43
2017-08-12T05:48:12.338Z,14.80
2017-08-12T05:50:40.702Z,14.53
2017-08-12T05:53:09.019Z,17.13
2017-08-12T05:55:36.550Z,16.43
2017-08-12T05:58:04.090Z,18.90
2017-08-12T06:00:31.631Z,13.97
2017-08-12T06:02:59.162Z,16.83
2017-08-12T06:05:26.710Z,19.63
2017-08-12T06:07:54.264Z,15.00
2017-08-12T06:10:21.793Z,16.77
2017-08-12T06:12:50.085Z,15.40
2017-08-12T06:15:17.634Z,17.33
2017-08-12T06:17:45.926Z,16.10
2017-08-12T06:20:13.470Z,18.67
2017-08-12T06:22:41.781Z,16.13
2017-08-12T06:25:09.301Z,15.33
2017-08-12T06:27:37.585Z,15.07
2017-08-12T06:30:05.135Z,18.10
2017-08-12T06:32:32.660Z,14.93
2017-08-12T06:35:00.301Z,14.50
2017-08-12T06:37:27.849Z,14.57
2017-08-12T06:39:55.379Z,15.80
2017-08-12T06:42:23.672Z,14.97
2017-08-12T06:44:51.218Z,13.13
2017-08-12T06:47:18.750Z,13.10
2017-08-12T06:49:46.287Z,13.30
2017-08-12T06:52:13.834Z,14.03
2017-08-12T06:54:41.374Z,16.27
2017-08-12T06:57:08.900Z,14.30
2017-08-12T06:59:36.453Z,12.87
2017-08-12T07:02:03.976Z,12.97
2017-08-12T07:04:31.518Z,12.83
2017-08-12T07:06:59.067Z,15.17
2017-08-12T07:09:26.602Z,11.80
2017-08-12T07:11:54.127Z,10.77
2017-08-12T07:14:21.669Z,12.33
2017-08-12T07:16:49.201Z,10.93
2017-08-12T07:19:16.737Z,11.40
2017-08-12T07:21:45.052Z,11.33
2017-08-12T07:24:12.585Z,11.07
2017-08-12T07:26:40.887Z,11.13
2017-08-12T07:29:08.433Z,11.03
2017-08-12T07:31:35.989Z,10.83
2017-08-12T07:34:03.521Z,10.03
2017-08-12T07:36:31.065Z,10.00
2017-08-12T07:38:58.588Z,10.70
2017-08-12T07:41:26.107Z,9.90
2017-08-12T07:43:54.461Z,10.33
2017-08-12T07:46:21.983Z,10.77
2017-08-12T07:48:49.503Z,9.20
2017-08-12T07:51:17.046Z,8.30
2017-08-12T07:53:44.564Z,8.50
2017-08-12T07:56:12.088Z,7.73
2017-08-12T07:58:40.390Z,8.50
2017-08-12T08:01:07.908Z,7.33
2017-08-12T08:03:35.429Z,6.30
2017-08-12T08:06:02.963Z,6.97
2017-08-12T08:08:30.496Z,5.67
2017-08-12T08:10:58.792Z,10.00
2017-08-12T08:13:26.330Z,6.80
2017-08-12T08:15:54.714Z,7.10
2017-08-12T08:18:22.242Z,6.33
2017-08-12T08:20:49.792Z,7.17
2017-08-12T08:23:17.308Z,5.97
2017-08-12T08:25:44.832Z,5.90
2017-08-12T08:28:12.398Z,7.30
2017-08-12T08:30:40.699Z,6.23
2017-08-12T08:33:08.275Z,6.78
2017-08-12T08:35:35.817Z,6.67
2017-08-12T08:38:03.338Z,6.87
2017-08-12T08:40:30.870Z,5.67
2017-08-12T08:42:58.409Z,5.80
2017-08-12T08:45:25.931Z,6.73
2017-08-12T08:47:54.225Z,5.70
2017-08-12T08:50:21.765Z,6.27
2017-08-12T08:52:49.285Z,6.40
2017-08-12T08:55:16.910Z,6.33
2017-08-12T08:57:44.470Z,5.80
2017-08-12T09:00:11.995Z,5.30
2017-08-12T09:02:39.513Z,5.60
2017-08-12T09:05:07.054Z,5.50
2017-08-12T09:07:34.573Z,5.60
2017-08-12T09:10:02.094Z,5.80
2017-08-12T09:12:29.640Z,5.83
2017-08-12T09:14:57.168Z,5.60
2017-08-12T09:17:25.454Z,6.23
2017-08-12T09:19:53.006Z,4.90
2017-08-12T09:22:21.298Z,5.43
2017-08-12T09:24:48.822Z,4.63
2017-08-12T09:27:16.466Z,5.30
2017-08-12T09:29:43.992Z,4.67
2017-08-12T09:32:11.520Z,4.17
2017-08-12T09:34:39.058Z,4.67
2017-08-12T09:37:06.590Z,4.57
2017-08-12T09:39:34.120Z,4.63
2017-08-12T09:42:01.671Z,5.67
2017-08-12T09:44:29.199Z,5.40
2017-08-12T09:46:56.717Z,4.30
2017-08-12T09:49:24.274Z,4.70
2017-08-12T09:51:51.835Z,4.23
2017-08-12T09:54:19.363Z,4.70
2017-08-12T09:56:46.898Z,4.93
2017-08-12T09:59:15.190Z,4.60
2017-08-12T10:01:42.721Z,5.30
2017-08-12T10:04:10.282Z,5.73
2017-08-12T10:06:37.901Z,4.87
2017-08-12T10:09:05.426Z,5.57
2017-08-12T10:11:33.736Z,4.93
2017-08-12T10:14:01.251Z,4.93
2017-08-12T10:16:29.542Z,4.83
2017-08-12T10:18:57.850Z,4.70
2017-08-12T10:21:25.370Z,4.50
2017-08-12T10:23:52.906Z,4.83
2017-08-12T10:26:20.446Z,5.13
2017-08-12T10:28:47.965Z,5.07
2017-08-12T10:31:15.498Z,4.20
2017-08-12T10:33:43.033Z,4.77
2017-08-12T10:36:10.553Z,4.73
2017-08-12T10:38:38.077Z,4.57
2017-08-12T10:41:06.394Z,4.67
2017-08-12T10:43:33.974Z,4.73
2017-08-12T10:46:01.538Z,4.30
2017-08-12T10:48:29.240Z,4.17
2017-08-12T10:50:57.521Z,5.13
2017-08-12T10:53:25.097Z,4.50
2017-08-12T10:55:52.638Z,4.47
2017-08-12T10:58:20.919Z,4.97
2017-08-12T11:00:48.444Z,4.07
2017-08-12T11:03:16.055Z,5.23
2017-08-12T11:05:43.579Z,3.60
2017-08-12T11:08:11.102Z,2.70
2017-08-12T11:10:39.338Z,3.20
2017-08-12T11:13:07.622Z,2.60
2017-08-12T11:15:35.148Z,1.63
2017-08-12T11:18:02.690Z,2.60
2017-08-12T11:20:30.214Z,2.50
2017-08-12T11:22:57.748Z,2.30
2017-08-12T11:25:25.288Z,2.60
2017-08-12T11:27:52.816Z,2.50
2017-08-12T11:30:20.333Z,2.10
2017-08-12T11:32:47.878Z,2.47
2017-08-12T11:35:16.171Z,1.97
2017-08-12T11:37:43.696Z,2.40
2017-08-12T11:40:12.032Z,2.17
2017-08-12T11:42:39.557Z,2.20
2017-08-12T11:45:07.846Z,2.63
2017-08-12T11:47:35.427Z,2.63
2017-08-12T11:50:02.973Z,1.90
2017-08-12T11:52:30.505Z,1.77
2017-08-12T11:54:58.049Z,1.90
2017-08-12T11:57:25.577Z,2.67
2017-08-12T11:59:53.097Z,1.90
2017-08-12T12:02:20.645Z,2.23
2017-08-12T12:04:48.931Z,2.30
2017-08-12T12:07:16.459Z,2.33
2017-08-12T12:09:44.004Z,2.17
2017-08-12T12:12:11.530Z,4.53
2017-08-12T12:14:39.073Z,2.17
2017-08-12T12:17:06.614Z,2.80
2017-08-12T12:19:34.907Z,2.17
2017-08-12T12:22:02.480Z,2.70
2017-08-12T12:24:30.074Z,2.87
2017-08-12T12:26:57.593Z,2.40
2017-08-12T12:29:25.114Z,3.80
2017-08-12T12:31:52.658Z,3.17
2017-08-12T12:34:20.178Z,3.53
2017-08-12T12:36:47.701Z,2.77
2017-08-12T12:39:16.016Z,2.60
2017-08-12T12:41:43.534Z,3.30
2017-08-12T12:44:11.825Z,3.27
2017-08-12T12:46:39.370Z,3.10
2017-08-12T12:49:07.675Z,3.17
2017-08-12T12:51:35.197Z,3.07
2017-08-12T12:54:02.741Z,3.83
2017-08-12T12:56:30.266Z,3.20
2017-08-12T12:58:57.789Z,3.23
2017-08-12T13:01:26.103Z,3.77
2017-08-12T13:03:53.621Z,3.13
2017-08-12T13:06:21.909Z,3.53
2017-08-12T13:08:49.450Z,3.37
2017-08-12T13:11:17.759Z,3.87
2017-08-12T13:13:45.280Z,4.67
2017-08-12T13:16:12.815Z,4.20
2017-08-12T13:18:40.332Z,5.87
2017-08-12T13:21:07.852Z,4.27
2017-08-12T13:23:35.392Z,4.23
2017-08-12T13:26:02.908Z,3.93
2017-08-12T13:28:30.434Z,3.87
2017-08-12T13:30:59.109Z,4.30
2017-08-12T13:33:26.726Z,3.47
2017-08-12T13:35:54.254Z,4.20
2017-08-12T13:38:21.808Z,4.10
2017-08-12T13:40:49.365Z,4.00
2017-08-12T13:43:17.653Z,4.37
2017-08-12T13:45:45.240Z,4.57
2017-08-12T13:48:12.770Z,4.57
2017-08-12T13:50:40.291Z,5.00
2017-08-12T13:53:07.835Z,5.23
2017-08-12T13:55:35.358Z,5.03
2017-08-12T13:58:02.888Z,4.87
2017-08-12T14:00:31.213Z,5.00
2017-08-12T14:02:58.884Z,4.60
2017-08-12T14:05:26.399Z,4.87
2017-08-12T14:07:54.811Z,6.57
2017-08-12T14:10:22.330Z,3.80
2017-08-12T14:12:50.615Z,3.53
2017-08-12T14:15:18.164Z,3.60
2017-08-12T14:17:46.448Z,2.80
2017-08-12T14:20:14.738Z,3.23
2017-08-12T14:22:42.275Z,3.40
2017-08-12T14:25:10.562Z,3.17
2017-08-12T14:27:38.851Z,2.33
2017-08-12T14:30:06.386Z,2.60
2017-08-12T14:32:34.670Z,2.30
2017-08-12T14:35:02.982Z,3.07
2017-08-12T14:37:30.524Z,2.30
2017-08-12T14:39:58.056Z,2.50
2017-08-12T14:42:25.590Z,2.80
2017-08-12T14:44:53.170Z,3.57
2017-08-12T14:47:21.526Z,3.30
2017-08-12T14:49:49.045Z,2.50
2017-08-12T14:52:16.581Z,2.63
2017-08-12T14:54:44.106Z,2.80
2017-08-12T14:57:11.679Z,4.97
2017-08-12T14:59:39.245Z,3.03
2017-08-12T15:02:07.541Z,3.20
2017-08-12T15:04:35.852Z,3.10
2017-08-12T15:07:03.410Z,2.60
2017-08-12T15:09:30.923Z,3.70
2017-08-12T15:11:59.245Z,3.63
2017-08-12T15:14:26.796Z,3.20
2017-08-12T15:16:54.314Z,3.77
2017-08-12T15:19:22.604Z,3.50
2017-08-12T15:21:50.906Z,3.50
2017-08-12T15:24:18.423Z,5.33
2017-08-12T15:26:46.036Z,3.27
2017-08-12T15:29:13.574Z,5.30
2017-08-12T15:31:41.111Z,4.43
2017-08-12T15:34:08.940Z,9.23
2017-08-12T15:36:36.548Z,3.50
2017-08-12T15:39:04.834Z,4.10
2017-08-12T15:41:32.354Z,3.90
2017-08-12T15:44:00.010Z,5.87
2017-08-12T15:46:28.288Z,5.40
2017-08-12T15:48:55.918Z,4.07
2017-08-12T15:51:23.475Z,3.80
2017-08-12T15:53:50.994Z,4.13
2017-08-12T15:56:19.285Z,3.80
2017-08-12T15:58:46.830Z,3.33
2017-08-12T16:01:15.126Z,3.87
2017-08-12T16:03:42.668Z,4.40
2017-08-12T16:06:10.269Z,4.10
2017-08-12T16:08:37.777Z,4.00
2017-08-12T16:11:05.293Z,3.70
2017-08-12T16:13:32.845Z,3.80
2017-08-12T16:16:00.365Z,3.80
2017-08-12T16:18:28.653Z,3.40
2017-08-12T16:20:56.238Z,3.43
2017-08-12T16:23:23.749Z,3.67
2017-08-12T16:25:51.320Z,4.53
2017-08-12T16:28:19.625Z,3.20
2017-08-12T16:30:47.197Z,3.50
2017-08-12T16:33:14.710Z,3.10
2017-08-12T16:35:43.016Z,3.77
2017-08-12T16:38:10.537Z,3.63
2017-08-12T16:40:38.066Z,6.40
2017-08-12T16:43:07.716Z,4.10
2017-08-12T16:45:35.269Z,3.60
2017-08-12T16:48:03.562Z,3.40
2017-08-12T16:50:31.107Z,3.80
2017-08-12T16:52:59.398Z,4.70
2017-08-12T16:55:27.690Z,3.60
2017-08-12T16:57:55.232Z,3.87
2017-08-12T17:00:22.750Z,6.43
2017-08-12T17:02:50.273Z,3.53
2017-08-12T17:05:17.814Z,3.83
2017-08-12T17:07:45.344Z,3.13
2017-08-12T17:10:12.877Z,3.80
2017-08-12T17:12:40.417Z,3.03
2017-08-12T17:15:07.937Z,3.10
2017-08-12T17:17:36.221Z,3.47
2017-08-12T17:20:04.633Z,3.73
2017-08-12T17:22:32.148Z,3.00
2017-08-12T17:25:00.440Z,3.30
2017-08-12T17:27:28.793Z,2.90
2017-08-12T17:29:56.318Z,3.67
2017-08-12T17:32:23.848Z,4.23
2017-08-12T17:34:51.390Z,3.90
2017-08-12T17:37:19.679Z,4.07
2017-08-12T17:39:47.388Z,3.83
2017-08-12T17:42:14.930Z,3.77
2017-08-12T17:44:42.458Z,3.70
2017-08-12T17:47:09.974Z,4.40
2017-08-12T17:49:37.512Z,4.67
2017-08-12T17:52:05.030Z,4.17
2017-08-12T17:54:32.558Z,4.50
2017-08-12T17:57:00.096Z,4.77
2017-08-12T17:59:27.628Z,4.80
2017-08-12T18:01:55.158Z,4.23
2017-08-12T18:04:23.485Z,4.40
2017-08-12T18:06:51.061Z,4.57
2017-08-12T18:11:52.633Z,5.10
2017-08-12T18:14:20.152Z,5.20
2017-08-12T18:16:47.691Z,5.07
2017-08-12T18:19:15.228Z,6.67
2017-08-12T18:21:42.763Z,6.60
2017-08-12T18:24:10.281Z,4.80
2017-08-12T18:26:37.824Z,5.73
2017-08-12T18:29:06.145Z,5.63
2017-08-12T18:31:33.682Z,6.50
2017-08-12T18:34:01.224Z,6.23
2017-08-12T18:36:29.515Z,6.77
2017-08-12T18:38:57.038Z,5.63
2017-08-12T18:41:24.580Z,5.00
2017-08-12T18:43:52.111Z,5.37
2017-08-12T18:46:19.628Z,5.60
2017-08-12T18:48:47.178Z,5.77
2017-08-12T18:51:15.472Z,6.30
2017-08-12T18:53:43.763Z,6.00
2017-08-12T18:56:11.317Z,7.00
2017-08-12T18:58:38.842Z,7.33
2017-08-12T19:01:06.374Z,11.90
2017-08-12T19:03:33.922Z,7.17
2017-08-12T19:06:01.453Z,10.00
2017-08-12T19:08:28.985Z,10.97
2017-08-12T19:10:57.298Z,10.63
2017-08-12T19:13:24.821Z,9.30
2017-08-12T19:15:53.109Z,8.83
2017-08-12T19:18:20.650Z,9.00
2017-08-12T19:20:48.269Z,9.40
2017-08-12T19:23:15.793Z,9.13
2017-08-12T19:25:44.093Z,10.10
2017-08-12T19:28:11.617Z,10.33
2017-08-12T19:30:39.137Z,7.27
2017-08-12T19:33:06.668Z,7.40
2017-08-12T19:35:34.181Z,7.20
2017-08-12T19:38:01.699Z,6.77
2017-08-12T19:40:29.240Z,6.63
2017-08-12T19:42:56.756Z,6.90
2017-08-12T19:45:24.276Z,6.97
2017-08-12T19:47:51.808Z,6.20
2017-08-12T19:50:19.330Z,6.23
2017-08-12T19:52:46.851Z,6.13
2017-08-12T19:55:14.393Z,6.00
2017-08-12T19:57:41.978Z,6.40
2017-08-12T20:00:09.494Z,6.53
2017-08-12T20:02:37.799Z,6.60
2017-08-12T20:05:05.323Z,6.77
2017-08-12T20:07:33.645Z,6.20
2017-08-12T20:10:01.216Z,6.70
2017-08-12T20:12:28.742Z,7.43
2017-08-12T20:14:56.262Z,7.30
2017-08-12T20:17:23.802Z,9.50
2017-08-12T20:19:51.321Z,6.73
2017-08-12T20:22:18.846Z,7.60
2017-08-12T20:24:46.384Z,8.90
2017-08-12T20:27:13.904Z,9.67
2017-08-12T20:29:41.426Z,10.57
2017-08-12T20:32:09.726Z,10.80
2017-08-12T20:34:37.249Z,10.13
2017-08-12T20:37:04.777Z,12.20
2017-08-12T20:39:32.429Z,10.90
2017-08-12T20:41:59.948Z,9.30
2017-08-12T20:44:27.457Z,9.57
2017-08-12T20:46:54.995Z,9.60
2017-08-12T20:49:22.516Z,9.90
2017-08-12T20:51:50.815Z,8.50
2017-08-12T20:54:18.358Z,9.80
2017-08-12T20:56:45.880Z,8.87
2017-08-12T20:59:13.396Z,7.97
2017-08-12T21:01:40.935Z,7.60
2017-08-12T21:04:09.229Z,7.80
2017-08-12T21:06:36.752Z,7.73
2017-08-12T21:09:04.282Z,7.30
2017-08-12T21:11:31.802Z,7.37
2017-08-12T21:13:59.322Z,6.70
2017-08-12T21:16:26.861Z,6.30
2017-08-12T21:18:54.382Z,7.37
2017-08-12T21:21:21.902Z,6.67
2017-08-12T21:23:49.456Z,6.00
2017-08-12T21:26:16.966Z,6.30
2017-08-12T21:28:44.489Z,5.43
2017-08-12T21:31:12.031Z,6.70
2017-08-12T21:33:39.549Z,5.43
2017-08-12T21:36:07.072Z,5.70
2017-08-12T21:38:35.399Z,6.10
2017-08-12T21:41:02.934Z,5.00
2017-08-12T21:43:30.487Z,5.87
2017-08-12T21:45:58.805Z,5.20
2017-08-12T21:48:26.329Z,6.10
2017-08-12T21:50:53.850Z,5.47
2017-08-12T21:53:21.395Z,6.87
2017-08-12T21:55:48.927Z,6.00
2017-08-12T21:58:16.489Z,5.00
2017-08-12T22:00:44.024Z,5.93
2017-08-12T22:03:11.546Z,5.50
2017-08-12T22:05:39.070Z,5.07
2017-08-12T22:08:06.610Z,5.10
2017-08-12T22:10:34.164Z,5.43
2017-08-12T22:13:01.746Z,6.50
2017-08-12T22:15:29.282Z,6.27
2017-08-12T22:17:56.918Z,5.70
2017-08-12T22:20:24.437Z,5.57
2017-08-12T22:22:51.974Z,6.20
2017-08-12T22:25:19.500Z,6.33
2017-08-12T22:27:47.030Z,6.83
2017-08-12T22:30:14.577Z,5.80
2017-08-12T22:32:42.101Z,5.87
2017-08-12T22:35:09.621Z,5.07
2017-08-12T22:37:37.167Z,6.00
2017-08-12T22:40:04.681Z,6.23
2017-08-12T22:42:32.286Z,7.43
2017-08-12T22:44:59.827Z,6.00
2017-08-12T22:47:27.353Z,5.97
2017-08-12T22:49:54.873Z,6.00
2017-08-12T22:52:22.404Z,5.50
2017-08-12T22:54:49.952Z,6.30
2017-08-12T22:57:17.624Z,6.17
2017-08-12T22:59:45.226Z,6.60
2017-08-12T23:02:12.766Z,5.83
2017-08-12T23:04:40.296Z,5.83
2017-08-12T23:07:07.831Z,6.67
2017-08-12T23:09:35.358Z,5.90
2017-08-12T23:12:02.969Z,6.63
2017-08-12T23:14:30.500Z,7.20
2017-08-12T23:16:58.026Z,6.47
2017-08-12T23:19:25.582Z,7.63
2017-08-12T23:21:53.126Z,7.63
2017-08-12T23:24:20.650Z,7.93
2017-08-12T23:26:48.237Z,7.57
2017-08-12T23:29:15.785Z,7.73
2017-08-12T23:31:43.349Z,8.03
2017-08-12T23:34:10.901Z,9.33
2017-08-12T23:36:38.463Z,8.90
2017-08-12T23:39:05.977Z,6.53
2017-08-12T23:41:34.261Z,7.10
2017-08-12T23:44:01.861Z,6.50
2017-08-12T23:46:29.421Z,7.10
2017-08-12T23:48:56.945Z,6.80
2017-08-12T23:51:25.255Z,5.80
2017-08-12T23:53:52.777Z,6.80
2017-08-12T23:56:21.194Z,6.77
2017-08-12T23:58:48.762Z,5.87
